Latest Coastal Weather Observations for Hindmarsh Island

IDS60701

Issued at 10:51 pm CDT Monday 8 February 2016 (issued every 10 minutes, with the page automatically refreshed every 10 minutes)

About coastal observations | Map of coastal stations | Coastal observations for SA | Marine services | Other Formats
Station Details ID: 023894 Name: HINDMARSH ISLAND AWS Lat: -35.52 Lon: 138.82 Height: 11.0 m
Data from the previous 72 hours. | See also: Recent months at Hindmarsh Island
Date/Time
CDT
Temp

°C
Wind Pressure Rain
since 9am
mm
Weather Cloud Vis
km
Sea
Height
m
Swell
Dir
 
Speed
knots
Gust
knots
hPa Trend Height
m
Period
s
Dir
08/10:30pm 18.2 SSE 17 21 1022.5 - 0.0 - - - - - - -
08/10:00pm 18.4 SSE 19 23 1022.4 - 0.0 - - - - - - -
08/09:30pm 18.4 SSE 17 22 1022.4 - 0.0 - - - - - - -
08/09:00pm 18.4 S 20 24 1021.7 - 0.0 - - - - - - -
08/08:30pm 18.4 S 18 22 1021.9 - 0.0 - - - - - - -
08/08:00pm 18.8 S 18 22 1021.7 - 0.0 - - - - - - -
08/07:30pm 19.1 S 19 22 1021.4 - 0.0 - - - - - - -
08/07:00pm 19.6 S 19 22 1021.2 - 0.0 - - - - - - -
08/06:30pm 19.9 S 18 21 1021.3 - 0.0 - - - - - - -
08/06:00pm 20.3 S 19 22 1021.4 - 0.0 - - - - - - -
08/05:30pm 20.5 S 19 23 1021.5 - 0.0 - - - - - - -
08/05:00pm 20.8 S 19 22 1021.7 - 0.0 - - - - - - -
08/04:30pm 21.2 S 19 22 1021.9 - 0.0 - - - - - - -
08/04:00pm 21.3 S 20 24 1022.2 - 0.0 - - - - - - -
08/03:30pm 21.0 S 18 22 1022.4 - 0.0 - - - - - - -
08/03:00pm 21.4 S 18 22 1022.5 - 0.0 - - - - - - -
08/02:30pm 20.8 S 18 22 1022.6 - 0.0 - - - - - - -
08/02:00pm 20.9 S 17 21 1022.9 - 0.0 - - - - - - -
08/01:30pm 20.3 S 17 21 1023.1 - 0.0 - - - - - - -
08/01:00pm 19.7 S 16 20 1023.4 - 0.0 - - - - - - -
08/12:30pm 20.1 S 17 20 1023.7 - 0.0 - - - - - - -
08/12:00pm 18.8 SSE 17 20 1023.7 - 0.0 - - - - - - -
08/11:30am 19.2 SSE 15 18 1023.8 - 0.0 - - - - - - -
08/11:00am 19.0 SSE 16 19 1024.0 - 0.0 - - - - - - -
08/10:30am 18.8 SSE 17 19 1023.9 - 0.0 - - - - - - -
08/10:00am 18.1 SSE 16 18 1023.9 - 0.0 - - - - - - -
08/09:30am 18.0 SSE 16 18 1023.7 - 0.0 - - - - - - -
08/09:00am 17.7 SSE 17 20 1023.4 - 0.0 Fine Cloudy 12 - - - -
08/08:30am 17.6 SSE 16 19 1023.2 - 0.0 - - - - - - -
08/08:00am 17.8 SSE 15 17 1023.0 - 0.0 - - - - - - -
08/07:30am 17.5 SSE 14 16 1022.6 - 0.0 - - - - - - -
08/07:00am 17.3 SSE 16 19 1022.4 - 0.0 - - - - - - -
08/06:30am 17.3 SSE 16 19 1022.0 - 0.0 - - - - - - -
08/06:00am 17.3 SSE 16 18 1021.6 - 0.0 - - - - - - -
08/05:30am 17.3 SSE 14 17 1021.6 - 0.0 - - - - - - -
08/05:00am 17.4 SSE 14 17 1021.4 - 0.0 - - - - - - -
08/04:30am 17.5 SSE 14 18 1021.4 - 0.0 - - - - - - -
08/04:00am 17.5 SSE 15 18 1021.4 - 0.0 - - - - - - -
08/03:30am 17.5 S 15 20 1021.5 - 0.0 - - - - - - -
08/03:00am 17.6 S 17 20 1021.2 - 0.0 - - - - - - -
08/02:30am 17.7 S 18 21 1021.5 - 0.0 - - - - - - -
08/02:00am 17.7 S 17 21 1021.7 - 0.0 - - - - - - -
08/01:30am 18.2 S 18 22 1021.9 - 0.0 - - - - - - -
08/01:00am 18.2 S 18 22 1021.9 - 0.0 - - - - - - -
08/12:30am 18.2 S 19 22 1021.7 - 0.0 - - - - - - -
08/12:00am 18.5 S 19 23 1021.7 - 0.0 - - - - - - -
 
Date/Time
CDT
Temp

°C
Wind Pressure Rain
since 9am
mm
Weather Cloud Vis
km
Sea
Height
m
Swell
Dir
 
Speed
knots
Gust
knots
hPa Trend Height
m
Period
s
Dir
07/11:30pm 18.6 S 19 22 1021.7 - 0.0 - - - - - - -
07/11:00pm 18.6 S 17 21 1021.7 - 0.0 - - - - - - -
07/10:30pm 18.8 S 19 22 1021.5 - 0.0 - - - - - - -
07/10:00pm 18.8 S 18 21 1021.3 - 0.0 - - - - - - -
07/09:30pm 18.8 S 18 21 1021.0 - 0.0 - - - - - - -
07/09:00pm 18.9 S 18 21 1020.5 - 0.0 - - - - - - -
07/08:30pm 18.8 S 18 21 1020.2 - 0.0 - - - - - - -
07/08:00pm 18.9 S 17 21 1019.8 - 0.0 - - - - - - -
07/07:30pm 19.2 SSW 16 19 1019.5 - 0.0 - - - - - - -
07/07:00pm 19.4 S 17 20 1018.9 - 0.0 - - - - - - -
07/06:30pm 19.8 S 17 21 1018.6 - 0.0 - - - - - - -
07/06:00pm 20.3 SSW 17 21 1018.3 - 0.0 - - - - - - -
07/05:30pm 20.7 SSW 16 19 1018.5 - 0.0 - - - - - - -
07/05:00pm 21.2 SSW 17 21 1018.3 - 0.0 - - - - - - -
07/04:30pm 21.5 SSW 16 18 1018.3 - 0.0 - - - - - - -
07/04:00pm 20.9 S 15 19 1018.3 - 0.0 - - - - - - -
07/03:30pm 21.4 S 15 18 1018.3 - 0.0 - - - - - - -
07/03:00pm 21.3 S 15 17 1018.4 - 0.0 - - - - - - -
07/02:30pm 21.8 SSW 16 19 1018.5 - 0.0 - - - - - - -
07/02:00pm 21.6 SSW 16 18 1018.7 - 0.0 - - - - - - -
07/01:30pm 21.3 SSW 16 19 1018.8 - 0.0 - - - - - - -
07/01:00pm 22.0 S 16 18 1018.8 - 0.0 - - - - - - -
07/12:30pm 21.8 SSW 14 17 1018.8 - 0.0 - - - - - - -
07/12:00pm 21.5 SSW 13 16 1018.7 - 0.0 - - - - - - -
07/11:30am 21.0 S 13 15 1018.8 - 0.0 - - - - - - -
07/11:00am 20.9 S 13 15 1018.7 - 0.0 - - - - - - -
07/10:30am 20.6 S 13 15 1018.8 - 0.0 - - - - - - -
07/10:00am 20.2 S 13 14 1018.8 - 0.0 - - - - - - -
07/09:30am 19.8 S 13 15 1018.8 - 0.0 - - - - - - -
07/09:00am 19.3 S 11 13 1018.6 - 0.0 Fine Cloudy 12 - - - -
07/08:30am 18.8 S 11 13 1018.5 - 0.0 - - - - - - -
07/08:00am 18.6 S 11 13 1018.0 - 0.0 - - - - - - -
07/07:30am 18.5 S 11 13 1017.6 - 0.0 - - - - - - -
07/07:00am 18.3 S 14 17 1017.4 - 0.0 - - - - - - -
07/06:30am 18.6 S 14 17 1017.1 - 0.0 - - - - - - -
07/06:00am 18.4 SSW 15 17 1016.6 - 0.0 - - - - - - -
07/05:30am 18.4 SSW 16 19 1016.6 - 0.0 - - - - - - -
07/05:00am 18.2 SSW 14 17 1016.1 - 0.0 - - - - - - -
07/04:30am 17.9 SSW 11 13 1015.7 - 0.0 - - - - - - -
07/04:00am 17.8 SSW 9 10 1015.4 - 0.0 - - - - - - -
07/03:30am 18.2 SSW 10 13 1015.7 - 0.0 - - - - - - -
07/03:00am 18.2 SSW 8 9 1015.8 - 0.0 - - - - - - -
07/02:30am 18.1 SSW 9 11 1015.9 - 0.0 - - - - - - -
07/02:00am 18.3 SSW 11 13 1016.0 - 0.0 - - - - - - -
07/01:30am 18.6 S 12 15 1016.4 - 0.0 - - - - - - -
07/01:00am 18.9 S 14 17 1016.7 - 0.0 - - - - - - -
07/12:30am 18.8 SSW 13 15 1016.7 - 0.0 - - - - - - -
07/12:00am 18.7 SSW 14 16 1016.6 - 0.0 - - - - - - -
 
Date/Time
CDT
Temp

°C
Wind Pressure Rain
since 9am
mm
Weather Cloud Vis
km
Sea
Height
m
Swell
Dir
 
Speed
knots
Gust
knots
hPa Trend Height
m
Period
s
Dir
06/11:30pm 18.7 SSW 13 16 1016.7 - 0.0 - - - - - - -
06/11:00pm 18.8 SSW 14 19 1016.6 - 0.0 - - - - - - -
06/10:30pm 18.8 SSW 15 18 1016.5 - 0.0 - - - - - - -
06/10:00pm 18.9 SSW 15 18 1016.2 - 0.0 - - - - - - -
06/09:30pm 18.8 SW 17 20 1015.9 - 0.0 - - - - - - -
06/09:00pm 18.8 SW 16 19 1015.4 - 0.0 - - - - - - -
06/08:30pm 18.8 SW 17 20 1015.2 - 0.0 - - - - - - -
06/08:00pm 18.9 SW 16 20 1015.0 - 0.0 - - - - - - -
06/07:30pm 19.2 SW 18 21 1014.6 - 0.0 - - - - - - -
06/07:00pm 19.7 SW 18 22 1014.5 - 0.0 - - - - - - -
06/06:30pm 20.7 SW 17 22 1014.5 - 0.0 - - - - - - -
06/06:00pm 20.7 SW 21 25 1014.3 - 0.0 - - - - - - -
06/05:30pm 20.8 SW 19 23 1014.3 - 0.0 - - - - - - -
06/05:00pm 21.4 SW 18 23 1014.1 - 0.0 - - - - - - -
06/04:30pm 22.0 SW 17 21 1014.1 - 0.0 - - - - - - -
06/04:00pm 22.0 SW 17 20 1014.1 - 0.0 - - - - - - -
06/03:30pm 22.4 SSW 16 19 1014.4 - 0.0 - - - - - - -
06/03:00pm 22.6 SW 16 19 1014.5 - 0.0 - - - - - - -
06/02:30pm 22.9 SSW 13 16 1014.8 - 0.0 - - - - - - -
06/02:00pm 23.0 SSW 12 14 1015.0 - 0.0 - - - - - - -
06/01:30pm 23.3 SSW 10 13 1015.0 - 0.0 - - - - - - -
06/01:00pm 22.4 S 9 10 1015.2 - 0.0 - - - - - - -
06/12:30pm 22.2 S 8 10 1015.4 - 0.0 - - - - - - -
06/12:00pm 22.3 S 8 9 1015.6 - 0.0 - - - - - - -
06/11:30am 22.0 SSW 9 10 1015.9 - 0.0 - - - - - - -
06/11:00am 21.4 SSW 8 10 1016.1 - 0.0 - - - - - - -
06/10:30am 21.1 SSW 7 9 1016.2 - 0.0 - - - - - - -
06/10:00am 20.9 SSW 6 8 1016.1 - 0.0 - - - - - - -
06/09:30am 20.5 SW 7 9 1016.3 - 0.0 - - - - - - -
06/09:00am 20.1 SW 6 8 1016.0 - 0.0 - Mostly cloudy 7 - - - -
06/08:30am 19.5 SSW 5 6 1015.9 - 0.0 - - - - - - -
06/08:00am 19.0 SSW 6 8 1015.7 - 0.0 - - - - - - -
06/07:30am 18.3 SW 6 7 1015.5 - 0.0 - - - - - - -
06/07:00am 18.0 SSW 7 8 1015.0 - 0.0 - - - - - - -
06/06:30am 17.7 SSW 7 9 1014.8 - 0.0 - - - - - - -
06/06:00am 17.9 SSW 8 9 1014.6 - 0.0 - - - - - - -
06/05:30am 17.8 SSW 7 9 1014.5 - 0.0 - - - - - - -
06/05:00am 17.7 SSW 8 9 1014.5 - 0.0 - - - - - - -
06/04:30am 17.8 SSW 8 10 1014.6 - 0.0 - - - - - - -
06/04:00am 17.7 SSW 8 9 1014.6 - 0.0 - - - - - - -
06/03:30am 17.9 SSW 9 11 1015.0 - 0.0 - - - - - - -
06/03:00am 18.0 SSW 10 11 1015.1 - 0.0 - - - - - - -
06/02:30am 17.9 SSW 10 13 1015.5 - 0.0 - - - - - - -
06/02:00am 18.0 SSW 12 15 1015.8 - 0.0 - - - - - - -
06/01:30am 17.9 SSW 12 14 1016.0 - 0.0 - - - - - - -
06/01:00am 18.0 SW 13 15 1016.2 - 0.0 - - - - - - -
06/12:30am 17.9 SSW 12 16 1016.5 - 0.0 - - - - - - -
06/12:00am 18.0 SSW 13 15 1016.7 - 0.0 - - - - - - -
 
Date/Time
CDT
Temp

°C
Wind Pressure Rain
since 9am
mm
Weather Cloud Vis
km
Sea
Height
m
Swell
Dir
 
Speed
knots
Gust
knots
hPa Trend Height
m
Period
s
Dir
05/11:30pm 18.0 SSW 14 16 1017.1 - 0.0 - - - - - - -
05/11:00pm 17.9 SSW 14 16 1017.3 - 0.0 - - - - - - -

Other Formats:

Comma delimited format used in spreadsheet applications
http://www.bom.gov.au/fwo/IDS60701/IDS60701.94677.axf

JavaScript Object Notation format (JSON) in row-major order
http://www.bom.gov.au/fwo/IDS60701/IDS60701.94677.json